createdAt,value
2023-03-27T00:00:16.518Z,100.00
2023-03-27T00:02:46.986Z,100.00
2023-03-27T00:05:16.347Z,100.00
2023-03-27T00:07:44.618Z,100.00
2023-03-27T00:10:13.281Z,100.00
2023-03-27T00:12:41.829Z,100.00
2023-03-27T00:15:17.405Z,100.00
2023-03-27T00:17:47.866Z,100.00
2023-03-27T00:20:16.807Z,100.00
2023-03-27T00:22:45.233Z,100.00
2023-03-27T00:25:13.470Z,100.00
2023-03-27T00:27:41.970Z,100.00
2023-03-27T00:30:13.051Z,100.00
2023-03-27T00:32:41.498Z,100.00
2023-03-27T00:35:10.662Z,100.00
2023-03-27T00:37:39.361Z,100.00
2023-03-27T00:40:09.332Z,100.00
2023-03-27T00:42:38.073Z,100.00
2023-03-27T00:45:08.181Z,100.00
2023-03-27T00:47:40.781Z,100.00
2023-03-27T00:50:13.724Z,100.00
2023-03-27T00:52:47.985Z,100.00
2023-03-27T00:55:20.109Z,100.00
2023-03-27T00:57:55.480Z,100.00
2023-03-27T01:00:24.248Z,100.00
2023-03-27T01:02:54.024Z,100.00
2023-03-27T01:05:22.548Z,100.00
2023-03-27T01:08:01.089Z,100.00
2023-03-27T01:10:39.942Z,100.00
2023-03-27T01:13:24.976Z,100.00
2023-03-27T01:15:59.284Z,100.00
2023-03-27T01:18:41.046Z,100.00
2023-03-27T01:21:38.655Z,100.00
2023-03-27T01:24:46.944Z,100.00
2023-03-27T01:27:20.564Z,100.00
2023-03-27T01:30:11.346Z,100.00
2023-03-27T01:33:08.567Z,100.00
2023-03-27T01:36:11.113Z,100.00
2023-03-27T01:39:26.766Z,100.00
2023-03-27T01:42:02.095Z,100.00
2023-03-27T01:44:43.944Z,100.00
2023-03-27T01:47:23.920Z,100.00
2023-03-27T01:50:01.499Z,100.00
2023-03-27T01:52:37.904Z,100.00
2023-03-27T01:55:11.966Z,100.00
2023-03-27T01:57:50.461Z,100.00
2023-03-27T02:00:23.580Z,100.00
2023-03-27T02:02:56.659Z,100.00
2023-03-27T02:05:31.835Z,100.00
2023-03-27T02:08:06.181Z,100.00
2023-03-27T02:10:41.100Z,100.00
2023-03-27T02:13:19.862Z,100.00
2023-03-27T02:15:51.455Z,100.00
2023-03-27T02:18:25.320Z,100.00
2023-03-27T02:20:54.107Z,100.00
2023-03-27T02:23:23.630Z,100.00
2023-03-27T02:25:55.457Z,100.00
2023-03-27T02:28:35.890Z,100.00
2023-03-27T02:31:32.849Z,100.00
2023-03-27T02:34:18.492Z,100.00
2023-03-27T02:36:56.495Z,100.00
2023-03-27T02:39:45.135Z,100.00
2023-03-27T02:42:22.329Z,100.00
2023-03-27T02:45:10.274Z,100.00
2023-03-27T02:47:43.992Z,100.00
2023-03-27T02:50:17.224Z,100.00
2023-03-27T02:52:51.252Z,100.00
2023-03-27T02:55:24.920Z,100.00
2023-03-27T02:58:00.267Z,100.00
2023-03-27T03:00:40.267Z,100.00
2023-03-27T03:03:35.081Z,100.00
2023-03-27T03:06:30.070Z,100.00
2023-03-27T03:09:03.090Z,100.00
2023-03-27T03:11:31.731Z,100.00
2023-03-27T03:14:01.484Z,100.00
2023-03-27T03:16:31.281Z,100.00
2023-03-27T03:18:59.584Z,100.00
2023-03-27T03:21:28.103Z,100.00
2023-03-27T03:23:57.904Z,100.00
2023-03-27T03:26:28.205Z,100.00
2023-03-27T03:29:00.680Z,100.00
2023-03-27T03:31:44.025Z,100.00
2023-03-27T03:34:13.416Z,100.00
2023-03-27T03:36:43.198Z,100.00
2023-03-27T03:39:12.615Z,100.00
2023-03-27T03:41:41.174Z,100.00
2023-03-27T03:44:10.008Z,100.00
2023-03-27T03:46:41.413Z,100.00
2023-03-27T03:49:10.601Z,100.00
2023-03-27T03:51:39.225Z,100.00
2023-03-27T03:54:09.320Z,100.00
2023-03-27T03:56:41.479Z,100.00
2023-03-27T03:59:11.113Z,100.00
2023-03-27T04:02:00.574Z,100.00
2023-03-27T04:04:32.119Z,100.00
2023-03-27T04:07:09.739Z,100.00
2023-03-27T04:09:44.277Z,100.00
2023-03-27T04:12:27.377Z,100.00
2023-03-27T04:15:01.720Z,100.00
2023-03-27T04:18:01.218Z,100.00
2023-03-27T04:20:30.171Z,100.00
2023-03-27T04:23:02.326Z,100.00
2023-03-27T04:25:32.212Z,100.00
2023-03-27T04:28:02.381Z,100.00
2023-03-27T04:30:44.233Z,100.00
2023-03-27T04:33:46.515Z,100.00
2023-03-27T04:36:34.656Z,100.00
2023-03-27T04:39:11.596Z,100.00
2023-03-27T04:41:39.855Z,100.00
2023-03-27T04:44:09.234Z,100.00
2023-03-27T04:46:42.028Z,100.00
2023-03-27T04:49:14.591Z,100.00
2023-03-27T04:51:53.128Z,100.00
2023-03-27T04:54:23.328Z,100.00
2023-03-27T04:56:53.423Z,100.00
2023-03-27T04:59:22.458Z,100.00
2023-03-27T05:02:11.066Z,100.00
2023-03-27T05:05:10.973Z,100.00
2023-03-27T05:07:39.590Z,100.00
2023-03-27T05:10:10.355Z,100.00
2023-03-27T05:12:44.456Z,100.00
2023-03-27T05:15:17.540Z,100.00
2023-03-27T05:17:53.260Z,100.00
2023-03-27T05:20:26.517Z,100.00
2023-03-27T05:22:56.278Z,100.00
2023-03-27T05:25:29.375Z,100.00
2023-03-27T05:27:59.823Z,100.00
2023-03-27T05:30:31.909Z,100.00
2023-03-27T05:33:17.692Z,100.00
2023-03-27T05:35:50.274Z,100.00
2023-03-27T05:38:19.853Z,100.00
2023-03-27T05:40:57.171Z,100.00
2023-03-27T05:43:26.476Z,100.00
2023-03-27T05:45:54.740Z,100.00
2023-03-27T05:48:23.407Z,100.00
2023-03-27T05:50:53.152Z,100.00
2023-03-27T05:53:28.556Z,100.00
2023-03-27T05:56:20.427Z,100.00
2023-03-27T05:59:01.220Z,100.00
2023-03-27T06:01:31.486Z,100.00
2023-03-27T06:04:01.171Z,100.00
2023-03-27T06:06:54.338Z,100.00
2023-03-27T06:09:22.963Z,100.00
2023-03-27T06:12:12.263Z,100.00
2023-03-27T06:14:41.453Z,100.00
2023-03-27T06:17:32.313Z,100.00
2023-03-27T06:20:10.612Z,100.00
2023-03-27T06:22:43.667Z,100.00
2023-03-27T06:25:13.553Z,100.00
2023-03-27T06:27:43.332Z,100.00
2023-03-27T06:30:13.029Z,100.00
2023-03-27T06:32:46.239Z,100.00
2023-03-27T06:35:16.457Z,100.00
2023-03-27T06:37:59.207Z,100.00
2023-03-27T06:40:29.450Z,100.00
2023-03-27T06:43:02.229Z,100.00
2023-03-27T06:45:38.722Z,100.00
2023-03-27T06:48:25.352Z,100.00
2023-03-27T06:50:57.914Z,100.00
2023-03-27T06:53:28.948Z,100.00
2023-03-27T06:55:59.280Z,100.00
2023-03-27T06:58:39.666Z,100.00
2023-03-27T07:01:08.905Z,100.00
2023-03-27T07:04:12.747Z,100.00
2023-03-27T07:06:55.080Z,100.00
2023-03-27T07:09:25.224Z,100.00
2023-03-27T07:12:04.249Z,100.00
2023-03-27T07:14:32.959Z,100.00
2023-03-27T07:17:01.601Z,100.00
2023-03-27T07:19:43.049Z,100.00
2023-03-27T07:22:13.851Z,100.00
2023-03-27T07:24:43.882Z,100.00
2023-03-27T07:27:12.872Z,100.00
2023-03-27T07:29:42.223Z,100.00
2023-03-27T07:32:29.525Z,99.73
2023-03-27T07:35:05.324Z,99.87
2023-03-27T07:37:55.004Z,99.23
2023-03-27T07:40:40.902Z,99.47
2023-03-27T07:43:35.548Z,98.65
2023-03-27T07:46:06.504Z,98.04
2023-03-27T07:48:36.083Z,98.28
2023-03-27T07:53:37.101Z,98.33
2023-03-27T07:56:14.980Z,98.61
2023-03-27T07:58:46.582Z,97.34
2023-03-27T08:01:20.966Z,96.62
2023-03-27T08:03:49.578Z,97.47
2023-03-27T08:06:20.467Z,96.09
2023-03-27T08:08:50.919Z,96.22
2023-03-27T08:11:30.171Z,96.55
2023-03-27T08:13:59.832Z,95.90
2023-03-27T08:16:30.184Z,96.18
2023-03-27T08:19:03.240Z,95.99
2023-03-27T08:21:33.370Z,96.08
2023-03-27T08:24:04.855Z,95.97
2023-03-27T08:26:37.549Z,94.71
2023-03-27T08:29:10.664Z,94.84
2023-03-27T08:31:39.568Z,94.89
2023-03-27T08:34:10.826Z,95.53
2023-03-27T08:36:48.063Z,95.47
2023-03-27T08:39:17.629Z,95.73
2023-03-27T08:41:57.326Z,96.08
2023-03-27T08:44:33.219Z,95.66
2023-03-27T08:47:11.978Z,95.84
2023-03-27T08:49:52.117Z,95.00
2023-03-27T08:52:45.823Z,94.76
2023-03-27T08:55:32.424Z,94.63
2023-03-27T08:58:19.912Z,95.34
2023-03-27T09:00:56.102Z,95.12
2023-03-27T09:03:30.878Z,95.06
2023-03-27T09:06:06.454Z,94.73
2023-03-27T09:08:49.704Z,94.46
2023-03-27T09:11:29.030Z,94.10
2023-03-27T09:14:10.006Z,94.75
2023-03-27T09:16:49.680Z,94.09
2023-03-27T09:19:45.621Z,94.41
2023-03-27T09:22:23.749Z,94.42
2023-03-27T09:25:24.404Z,94.51
2023-03-27T09:28:19.177Z,94.23
2023-03-27T09:30:57.432Z,94.77
2023-03-27T09:33:41.402Z,94.89
2023-03-27T09:36:10.897Z,95.31
2023-03-27T09:38:42.581Z,95.15
2023-03-27T09:41:22.871Z,94.55
2023-03-27T09:43:59.913Z,94.60
2023-03-27T09:46:30.245Z,93.50
2023-03-27T09:49:06.784Z,94.73
2023-03-27T09:51:42.811Z,94.76
2023-03-27T09:54:29.120Z,94.79
2023-03-27T09:57:05.096Z,94.76
2023-03-27T09:59:37.565Z,94.88
2023-03-27T10:02:22.880Z,94.35
2023-03-27T10:05:04.322Z,93.90
2023-03-27T10:07:37.695Z,94.54
2023-03-27T10:10:12.288Z,94.27
2023-03-27T10:13:03.411Z,94.53
2023-03-27T10:15:38.977Z,94.19
2023-03-27T10:18:27.200Z,93.96
2023-03-27T10:21:10.889Z,94.16
2023-03-27T10:23:44.179Z,95.16
2023-03-27T10:26:26.533Z,94.77
2023-03-27T10:29:01.573Z,94.71
2023-03-27T10:31:51.085Z,96.01
2023-03-27T10:34:51.628Z,96.11
2023-03-27T10:37:50.072Z,94.26
2023-03-27T10:40:28.528Z,93.93
2023-03-27T10:43:04.692Z,94.88
2023-03-27T10:45:45.438Z,94.56
2023-03-27T10:48:24.576Z,94.55
2023-03-27T10:50:59.512Z,93.86
2023-03-27T10:53:53.350Z,94.14
2023-03-27T10:56:31.623Z,93.80
2023-03-27T10:59:04.406Z,93.85
2023-03-27T11:01:39.582Z,93.78
2023-03-27T11:04:16.417Z,93.68
2023-03-27T11:06:57.946Z,93.54
2023-03-27T11:09:32.537Z,92.89
2023-03-27T11:12:14.384Z,92.73
2023-03-27T11:15:04.481Z,92.28
2023-03-27T11:17:40.754Z,92.68
2023-03-27T11:20:34.979Z,92.45
2023-03-27T11:23:32.131Z,93.06
2023-03-27T11:26:36.864Z,93.24
2023-03-27T11:29:10.410Z,92.78
2023-03-27T11:31:47.539Z,93.18
2023-03-27T11:34:33.626Z,92.75
2023-03-27T11:37:27.789Z,93.66
2023-03-27T11:40:02.944Z,93.00
2023-03-27T11:42:37.295Z,93.37
2023-03-27T11:45:13.238Z,93.23
2023-03-27T11:48:11.301Z,92.92
2023-03-27T11:50:54.290Z,92.52
2023-03-27T11:53:54.921Z,91.69
2023-03-27T11:56:54.426Z,92.58
2023-03-27T11:59:51.696Z,92.31
2023-03-27T12:02:46.619Z,91.90
2023-03-27T12:05:26.676Z,91.80
2023-03-27T12:08:08.555Z,91.42
2023-03-27T12:10:40.826Z,91.69
2023-03-27T12:13:58.019Z,91.36
2023-03-27T12:16:52.236Z,92.48
2023-03-27T12:19:48.940Z,91.52
2023-03-27T12:22:29.642Z,91.86
2023-03-27T12:25:21.066Z,91.69
2023-03-27T12:28:26.405Z,92.00
2023-03-27T12:31:29.697Z,92.09
2023-03-27T12:34:03.116Z,93.17
2023-03-27T12:36:36.401Z,93.17
2023-03-27T12:39:13.768Z,93.28
2023-03-27T12:41:46.023Z,93.20
2023-03-27T12:44:28.954Z,93.79
2023-03-27T12:47:21.599Z,94.28
2023-03-27T12:49:59.712Z,94.70
2023-03-27T12:52:35.052Z,94.70
2023-03-27T12:55:35.364Z,94.20
2023-03-27T12:58:06.182Z,93.43
2023-03-27T13:01:00.262Z,93.07
2023-03-27T13:04:12.664Z,92.98
2023-03-27T13:06:52.738Z,93.46
2023-03-27T13:09:46.837Z,93.58
2023-03-27T13:12:37.000Z,92.93
2023-03-27T13:15:34.529Z,93.52
2023-03-27T13:18:22.389Z,93.23
2023-03-27T13:21:05.689Z,93.50
2023-03-27T13:23:50.781Z,93.98
2023-03-27T13:26:39.129Z,93.14
2023-03-27T13:29:16.525Z,92.89
2023-03-27T13:32:06.102Z,93.28
2023-03-27T13:35:27.269Z,93.72
2023-03-27T13:38:00.775Z,93.57
2023-03-27T13:40:36.875Z,93.22
2023-03-27T13:43:25.355Z,93.13
2023-03-27T13:46:07.935Z,94.35
2023-03-27T13:49:11.854Z,94.33
2023-03-27T13:52:23.733Z,93.88
2023-03-27T13:55:27.818Z,94.00
2023-03-27T13:58:30.325Z,94.18
2023-03-27T14:01:30.589Z,93.46
2023-03-27T14:04:35.707Z,93.27
2023-03-27T14:07:46.289Z,93.51
2023-03-27T14:10:37.433Z,93.58
2023-03-27T14:13:25.542Z,93.06
2023-03-27T14:16:33.366Z,93.63
2023-03-27T14:19:32.980Z,93.25
2023-03-27T14:22:05.406Z,93.26
2023-03-27T14:24:43.612Z,93.67
2023-03-27T14:27:27.838Z,93.47
2023-03-27T14:30:10.277Z,93.82
2023-03-27T14:32:43.148Z,94.27
2023-03-27T14:35:29.427Z,94.34
2023-03-27T14:38:09.101Z,94.01
2023-03-27T14:40:47.485Z,94.19
2023-03-27T14:43:21.179Z,94.73
2023-03-27T14:45:58.568Z,95.90
2023-03-27T14:48:30.338Z,96.22
2023-03-27T14:51:02.931Z,95.81
2023-03-27T14:53:44.653Z,96.86
2023-03-27T14:56:27.908Z,96.77
2023-03-27T14:59:11.252Z,96.22
2023-03-27T15:01:56.655Z,95.91
2023-03-27T15:04:26.213Z,95.64
2023-03-27T15:07:13.213Z,96.41
2023-03-27T15:10:03.632Z,95.72
2023-03-27T15:12:56.542Z,95.43
2023-03-27T15:15:34.622Z,95.02
2023-03-27T15:18:05.497Z,95.23
2023-03-27T15:20:37.364Z,95.38
2023-03-27T15:23:12.886Z,95.91
2023-03-27T15:25:46.010Z,95.66
2023-03-27T15:28:23.746Z,95.04
2023-03-27T15:30:55.159Z,95.57
2023-03-27T15:33:34.652Z,95.46
2023-03-27T15:36:07.244Z,94.88
2023-03-27T15:38:37.636Z,94.94
2023-03-27T15:41:41.883Z,95.93
2023-03-27T15:44:13.152Z,95.37
2023-03-27T15:46:55.486Z,95.47
2023-03-27T15:49:30.526Z,96.37
2023-03-27T15:52:00.425Z,96.83
2023-03-27T15:54:34.012Z,97.62
2023-03-27T15:57:10.656Z,97.74
2023-03-27T15:59:52.689Z,97.40
2023-03-27T16:02:26.659Z,98.27
2023-03-27T16:04:57.314Z,97.62
2023-03-27T16:07:30.346Z,97.92
2023-03-27T16:10:02.385Z,97.79
2023-03-27T16:12:34.301Z,98.10
2023-03-27T16:15:07.911Z,98.20
2023-03-27T16:17:46.599Z,98.33
2023-03-27T16:20:35.066Z,98.48
2023-03-27T16:23:04.247Z,99.20
2023-03-27T16:25:32.813Z,98.91
2023-03-27T16:28:01.154Z,99.46
2023-03-27T16:30:32.158Z,99.65
2023-03-27T16:33:02.218Z,100.00
2023-03-27T16:35:32.624Z,100.00
2023-03-27T16:38:01.311Z,100.00
2023-03-27T16:40:29.546Z,100.00
2023-03-27T16:42:58.008Z,100.00
2023-03-27T16:45:26.885Z,100.00
2023-03-27T16:47:55.142Z,100.00
2023-03-27T16:50:26.844Z,100.00
2023-03-27T16:52:54.974Z,100.00
2023-03-27T16:55:23.256Z,100.00
2023-03-27T16:57:52.547Z,100.00
2023-03-27T17:00:21.421Z,100.00
2023-03-27T17:02:49.993Z,100.00
2023-03-27T17:05:18.401Z,100.00
2023-03-27T17:07:48.293Z,100.00
2023-03-27T17:10:17.185Z,100.00
2023-03-27T17:12:45.607Z,100.00
2023-03-27T17:15:15.128Z,100.00
2023-03-27T17:17:44.082Z,100.00
2023-03-27T17:20:12.783Z,100.00
2023-03-27T17:22:40.982Z,100.00
2023-03-27T17:25:11.614Z,100.00
2023-03-27T17:27:41.171Z,100.00
2023-03-27T17:30:10.446Z,100.00
2023-03-27T17:32:38.817Z,100.00
2023-03-27T17:35:07.992Z,100.00
2023-03-27T17:37:36.778Z,100.00
2023-03-27T17:40:09.720Z,100.00
2023-03-27T17:42:39.882Z,100.00
2023-03-27T17:45:08.758Z,100.00
2023-03-27T17:47:37.031Z,100.00
2023-03-27T17:50:06.871Z,100.00
2023-03-27T17:52:35.303Z,100.00
2023-03-27T17:55:03.768Z,100.00
2023-03-27T17:57:33.073Z,100.00
2023-03-27T18:00:06.462Z,100.00
2023-03-27T18:02:41.469Z,100.00
2023-03-27T18:05:10.163Z,100.00
2023-03-27T18:07:38.503Z,100.00
2023-03-27T18:10:08.553Z,100.00
2023-03-27T18:12:37.093Z,100.00
2023-03-27T18:15:08.603Z,100.00
2023-03-27T18:17:37.234Z,100.00
2023-03-27T18:20:10.298Z,100.00
2023-03-27T18:22:38.809Z,100.00
2023-03-27T18:25:09.235Z,100.00
2023-03-27T18:27:40.211Z,100.00
2023-03-27T18:30:13.888Z,100.00
2023-03-27T18:32:44.561Z,100.00
2023-03-27T18:35:15.017Z,100.00
2023-03-27T18:37:44.628Z,100.00
2023-03-27T18:40:15.494Z,100.00
2023-03-27T18:42:45.033Z,100.00
2023-03-27T18:45:16.802Z,100.00
2023-03-27T18:47:46.206Z,100.00
2023-03-27T18:50:15.740Z,100.00
2023-03-27T18:52:44.404Z,100.00
2023-03-27T18:55:13.107Z,100.00
2023-03-27T18:57:41.572Z,100.00
2023-03-27T19:00:15.102Z,100.00
2023-03-27T19:02:45.305Z,100.00
2023-03-27T19:05:14.978Z,100.00
2023-03-27T19:07:44.315Z,100.00
2023-03-27T19:10:14.073Z,100.00
2023-03-27T19:12:49.814Z,100.00
2023-03-27T19:15:38.606Z,100.00
2023-03-27T19:18:30.037Z,100.00
2023-03-27T19:21:17.243Z,100.00
2023-03-27T19:24:11.516Z,100.00
2023-03-27T19:26:44.563Z,100.00
2023-03-27T19:29:12.999Z,100.00
2023-03-27T19:31:41.893Z,100.00
2023-03-27T19:34:11.730Z,100.00
2023-03-27T19:36:39.992Z,100.00
2023-03-27T19:39:09.164Z,100.00
2023-03-27T19:41:37.276Z,100.00
2023-03-27T19:44:05.899Z,100.00
2023-03-27T19:46:34.081Z,100.00
2023-03-27T19:49:02.338Z,100.00
2023-03-27T19:51:42.703Z,100.00
2023-03-27T19:54:14.002Z,100.00
2023-03-27T19:56:42.423Z,100.00
2023-03-27T19:59:15.319Z,100.00
2023-03-27T20:01:52.974Z,100.00
2023-03-27T20:04:21.627Z,100.00
2023-03-27T20:06:51.998Z,100.00
2023-03-27T20:09:20.380Z,100.00
2023-03-27T20:11:49.627Z,100.00
2023-03-27T20:14:19.642Z,100.00
2023-03-27T20:16:51.155Z,100.00
2023-03-27T20:19:22.016Z,100.00
2023-03-27T20:21:52.990Z,100.00
2023-03-27T20:24:21.457Z,100.00
2023-03-27T20:26:57.098Z,100.00
2023-03-27T20:29:26.954Z,100.00
2023-03-27T20:31:55.669Z,100.00
2023-03-27T20:34:24.269Z,100.00
2023-03-27T20:36:54.886Z,100.00
2023-03-27T20:39:47.004Z,100.00
2023-03-27T20:42:17.942Z,100.00
2023-03-27T20:44:54.990Z,100.00
2023-03-27T20:47:23.617Z,100.00
2023-03-27T20:49:51.866Z,100.00
2023-03-27T20:52:22.875Z,100.00
2023-03-27T20:54:51.702Z,100.00
2023-03-27T20:57:21.898Z,100.00
2023-03-27T20:59:50.365Z,100.00
2023-03-27T21:02:20.361Z,100.00
2023-03-27T21:04:49.039Z,100.00
2023-03-27T21:07:17.802Z,100.00
2023-03-27T21:09:48.895Z,100.00
2023-03-27T21:12:17.346Z,100.00
2023-03-27T21:14:48.310Z,100.00
2023-03-27T21:17:16.652Z,100.00
2023-03-27T21:19:44.868Z,100.00
2023-03-27T21:22:13.296Z,100.00
2023-03-27T21:24:41.777Z,100.00
2023-03-27T21:27:12.754Z,100.00
2023-03-27T21:29:41.062Z,100.00
2023-03-27T21:32:09.567Z,100.00
2023-03-27T21:34:37.865Z,100.00
2023-03-27T21:37:06.140Z,100.00
2023-03-27T21:39:34.671Z,100.00
2023-03-27T21:42:03.403Z,100.00
2023-03-27T21:44:33.106Z,100.00
2023-03-27T21:47:01.421Z,100.00
2023-03-27T21:49:29.829Z,100.00
2023-03-27T21:51:58.037Z,100.00
2023-03-27T21:54:26.388Z,100.00
2023-03-27T21:56:54.685Z,100.00
2023-03-27T21:59:22.926Z,100.00
2023-03-27T22:01:52.610Z,100.00
2023-03-27T22:04:21.940Z,100.00
2023-03-27T22:06:50.924Z,100.00
2023-03-27T22:09:19.114Z,100.00
2023-03-27T22:11:47.241Z,100.00
2023-03-27T22:14:15.512Z,100.00
2023-03-27T22:16:43.794Z,100.00
2023-03-27T22:19:13.430Z,100.00
2023-03-27T22:21:41.615Z,100.00
2023-03-27T22:24:10.106Z,100.00
2023-03-27T22:26:40.329Z,100.00
2023-03-27T22:29:10.392Z,100.00
2023-03-27T22:31:39.061Z,100.00
2023-03-27T22:34:08.281Z,100.00
2023-03-27T22:36:37.880Z,100.00
2023-03-27T22:39:06.389Z,100.00
2023-03-27T22:41:34.651Z,100.00
2023-03-27T22:44:03.350Z,100.00
2023-03-27T22:46:31.947Z,100.00
2023-03-27T22:49:00.802Z,100.00
2023-03-27T22:51:30.053Z,100.00
2023-03-27T22:54:00.118Z,100.00
2023-03-27T22:56:28.315Z,100.00
2023-03-27T22:58:57.029Z,100.00
2023-03-27T23:01:25.229Z,100.00
2023-03-27T23:03:53.591Z,100.00
2023-03-27T23:06:23.859Z,100.00
2023-03-27T23:08:52.488Z,100.00
2023-03-27T23:11:22.305Z,100.00
2023-03-27T23:13:51.028Z,100.00
2023-03-27T23:16:19.214Z,100.00
2023-03-27T23:18:47.525Z,100.00
2023-03-27T23:21:16.791Z,100.00
2023-03-27T23:23:45.718Z,100.00
2023-03-27T23:26:14.256Z,100.00
2023-03-27T23:28:44.295Z,100.00
2023-03-27T23:31:14.626Z,100.00
2023-03-27T23:33:44.742Z,100.00
2023-03-27T23:36:14.870Z,100.00
2023-03-27T23:38:43.864Z,100.00
2023-03-27T23:41:16.484Z,100.00
2023-03-27T23:43:46.344Z,100.00
2023-03-27T23:46:14.879Z,100.00
2023-03-27T23:48:44.628Z,100.00
2023-03-27T23:51:14.292Z,100.00
2023-03-27T23:53:43.297Z,100.00
2023-03-27T23:56:11.915Z,100.00
2023-03-27T23:58:40.094Z,100.00
